Hovedside
METAR-TAF:

METAR-TAF

Lufthavner :

Sandnessjøen lufthavn. Stokka

Sandnessjøen, Norge

breddegrad: 65-58N, lengdegrad: 012-28E, høyde over havet: 1 m

Gjeldene værobservasjon

Denne rapporten ble laget for 20 minutter siden, klokken 06:20 UTC
Vind 4 kt fra skiftende retning
Temperatur 1°C
Luftfuktighet 51%
Trykk 994 hPa
Sikt 10 km eller mer
ingen skyer under 1500 m og ingen bygeskyer

METAR: ENST 290620Z VRB04KT CAVOK 01/M08 Q0994 RMK WIND 300FT VRB06KT

Tid: 07:40 (06:40 UTC)


TAF: fraværende

Værobservasjoner og værvarsel for over 4000 flyplasser (METAR- og TAF-rapporter).

Tilgjengelige stasjoner er representert av de røde og gule prikkene på kartet.

Hold musepekeren over prikken for å se navnet på stasjonen.

Klikk så for å se værobservasjoner og -varsler.

For å forandre kartet kan du klikke på den grønne knappen med svart kryss for å zoome inn, på den grønne knappen med strek for å zoome ut, eller på de grønne pilene for å se tilstøtende kart.


METAR-TAF: